createdAt,value
2022-12-08T00:01:41.940Z,11.77
2022-12-08T00:04:08.903Z,13.68
2022-12-08T00:06:37.392Z,14.10
2022-12-08T00:09:04.397Z,13.93
2022-12-08T00:11:31.287Z,13.35
2022-12-08T00:13:58.327Z,18.40
2022-12-08T00:16:25.303Z,19.02
2022-12-08T00:18:52.281Z,20.00
2022-12-08T00:21:19.106Z,17.97
2022-12-08T00:23:46.036Z,13.70
2022-12-08T00:26:12.870Z,14.75
2022-12-08T00:28:39.719Z,16.27
2022-12-08T00:31:11.503Z,15.43
2022-12-08T00:33:39.203Z,15.17
2022-12-08T00:36:10.869Z,11.27
2022-12-08T00:38:38.598Z,10.73
2022-12-08T00:41:12.116Z,17.08
2022-12-08T00:43:39.093Z,14.63
2022-12-08T00:46:06.199Z,13.07
2022-12-08T00:48:33.243Z,13.52
2022-12-08T00:51:00.179Z,17.30
2022-12-08T00:53:27.070Z,19.35
2022-12-08T00:55:53.855Z,19.23
2022-12-08T00:58:20.746Z,15.70
2022-12-08T01:00:47.799Z,14.50
2022-12-08T01:03:15.567Z,14.15
2022-12-08T01:05:42.509Z,14.20
2022-12-08T01:08:09.545Z,15.43
2022-12-08T01:10:36.868Z,17.63
2022-12-08T01:13:04.433Z,18.23
2022-12-08T01:15:31.445Z,19.08
2022-12-08T01:17:58.506Z,20.92
2022-12-08T01:20:25.385Z,19.25
2022-12-08T01:22:52.189Z,21.60
2022-12-08T01:25:19.248Z,21.20
2022-12-08T01:27:46.106Z,21.33
2022-12-08T01:30:13.442Z,22.35
2022-12-08T01:32:40.384Z,21.25
2022-12-08T01:35:07.476Z,16.20
2022-12-08T01:37:34.426Z,16.35
2022-12-08T01:40:01.677Z,15.48
2022-12-08T01:42:29.010Z,14.68
2022-12-08T01:45:00.522Z,13.48
2022-12-08T01:47:33.384Z,14.03
2022-12-08T01:50:00.912Z,13.55
2022-12-08T01:52:36.865Z,13.10
2022-12-08T01:55:12.961Z,17.90
2022-12-08T01:57:47.581Z,19.20
2022-12-08T02:00:18.399Z,18.50
2022-12-08T02:03:09.484Z,19.77
2022-12-08T02:05:40.136Z,19.85
2022-12-08T02:08:09.403Z,18.15
2022-12-08T02:10:39.319Z,17.33
2022-12-08T02:13:09.831Z,16.20
2022-12-08T02:15:56.329Z,18.20
2022-12-08T02:18:32.293Z,19.20
2022-12-08T02:21:26.238Z,15.80
2022-12-08T02:24:18.135Z,14.73
2022-12-08T02:27:03.434Z,13.97
2022-12-08T02:29:45.367Z,17.13
2022-12-08T02:32:42.482Z,17.85
2022-12-08T02:35:21.886Z,16.70
2022-12-08T02:38:15.033Z,13.98
2022-12-08T02:41:18.149Z,15.70
2022-12-08T02:43:51.309Z,17.50
2022-12-08T02:46:58.372Z,19.45
2022-12-08T02:49:30.209Z,17.90
2022-12-08T02:52:12.278Z,17.50
2022-12-08T02:54:47.516Z,19.83
2022-12-08T02:57:44.434Z,19.63
2022-12-08T03:00:20.511Z,16.92
2022-12-08T03:03:06.122Z,15.93
2022-12-08T03:06:08.807Z,16.33
2022-12-08T03:09:13.093Z,16.40
2022-12-08T03:11:52.164Z,18.02
2022-12-08T03:14:21.936Z,19.33
2022-12-08T03:16:52.909Z,19.48
2022-12-08T03:19:27.457Z,19.58
2022-12-08T03:21:58.091Z,18.80
2022-12-08T03:24:24.898Z,16.63
2022-12-08T03:27:05.984Z,20.13
2022-12-08T03:29:33.328Z,20.23
2022-12-08T03:32:35.423Z,16.65
2022-12-08T03:35:08.139Z,18.13
2022-12-08T03:37:36.741Z,16.50
2022-12-08T03:40:06.421Z,16.40
2022-12-08T03:42:33.513Z,17.98
2022-12-08T03:45:00.340Z,18.50
2022-12-08T03:47:27.231Z,16.47
2022-12-08T03:49:54.109Z,15.45
2022-12-08T03:52:21.006Z,16.05
2022-12-08T03:54:48.190Z,15.30
2022-12-08T03:57:15.064Z,13.10
2022-12-08T03:59:42.024Z,13.27
2022-12-08T04:02:08.910Z,12.98
2022-12-08T04:04:35.922Z,12.07
2022-12-08T04:07:02.868Z,19.60
2022-12-08T04:09:29.757Z,19.27
2022-12-08T04:11:56.709Z,17.93
2022-12-08T04:14:23.582Z,16.48
2022-12-08T04:16:50.457Z,12.85
2022-12-08T04:19:17.458Z,12.25
2022-12-08T04:21:44.298Z,13.43
2022-12-08T04:24:11.260Z,14.43
2022-12-08T04:26:38.124Z,13.85
2022-12-08T04:29:04.977Z,13.98
2022-12-08T04:31:31.984Z,12.48
2022-12-08T04:33:59.226Z,12.13
2022-12-08T04:36:26.123Z,11.87
2022-12-08T04:38:53.029Z,11.27
2022-12-08T04:41:19.967Z,11.90
2022-12-08T04:43:46.898Z,12.32
2022-12-08T04:46:13.827Z,13.63
2022-12-08T04:48:41.682Z,12.00
2022-12-08T04:51:17.813Z,11.90
2022-12-08T04:53:46.905Z,12.68
2022-12-08T04:56:16.706Z,17.33
2022-12-08T04:58:44.304Z,15.52
2022-12-08T05:01:11.713Z,13.97
2022-12-08T05:03:38.842Z,12.30
2022-12-08T05:06:06.079Z,12.27
2022-12-08T05:08:33.699Z,11.55
2022-12-08T05:11:09.071Z,11.40
2022-12-08T05:13:36.030Z,16.50
2022-12-08T05:16:08.704Z,18.58
2022-12-08T05:18:36.824Z,15.10
2022-12-08T05:21:05.341Z,18.02
2022-12-08T05:23:32.521Z,17.77
2022-12-08T05:25:59.872Z,19.00
2022-12-08T05:28:43.487Z,19.65
2022-12-08T05:31:15.574Z,19.50
2022-12-08T05:33:43.173Z,21.27
2022-12-08T05:36:12.883Z,21.13
2022-12-08T05:38:40.601Z,21.67
2022-12-08T05:41:08.238Z,21.50
2022-12-08T05:43:35.778Z,18.65
2022-12-08T05:46:02.946Z,21.27
2022-12-08T05:48:29.941Z,20.17
2022-12-08T05:50:56.816Z,16.97
2022-12-08T05:53:23.730Z,22.13
2022-12-08T05:55:50.610Z,25.15
2022-12-08T05:58:22.437Z,24.05
2022-12-08T06:00:50.896Z,23.65
2022-12-08T06:03:19.467Z,20.80
2022-12-08T06:05:47.602Z,19.88
2022-12-08T06:08:14.756Z,17.67
2022-12-08T06:10:43.734Z,19.90
2022-12-08T06:13:11.278Z,21.38
2022-12-08T06:15:40.118Z,22.33
2022-12-08T06:18:08.235Z,22.42
2022-12-08T06:20:36.525Z,24.85
2022-12-08T06:23:03.409Z,26.95
2022-12-08T06:25:30.588Z,25.10
2022-12-08T06:27:57.545Z,27.13
2022-12-08T06:30:24.482Z,27.60
2022-12-08T06:32:51.366Z,27.33
2022-12-08T06:35:18.298Z,28.80
2022-12-08T06:37:45.115Z,27.55
2022-12-08T06:40:12.444Z,27.43
2022-12-08T06:42:39.401Z,25.17
2022-12-08T06:45:06.785Z,25.85
2022-12-08T06:47:33.688Z,26.63
2022-12-08T06:50:00.852Z,25.80
2022-12-08T06:52:27.826Z,25.93
2022-12-08T06:54:54.838Z,24.58
2022-12-08T06:57:21.858Z,25.63
2022-12-08T06:59:48.665Z,26.63
2022-12-08T07:02:15.747Z,25.90
2022-12-08T07:04:42.575Z,22.03
2022-12-08T07:07:09.714Z,21.73
2022-12-08T07:09:37.019Z,23.83
2022-12-08T07:12:04.557Z,28.77
2022-12-08T07:14:31.350Z,29.45
2022-12-08T07:16:58.418Z,30.10
2022-12-08T07:19:25.209Z,29.88
2022-12-08T07:21:52.101Z,32.00
2022-12-08T07:24:18.908Z,32.88
2022-12-08T07:26:45.794Z,31.50
2022-12-08T07:29:12.749Z,31.00
2022-12-08T07:31:39.528Z,31.25
2022-12-08T07:34:06.544Z,36.55
2022-12-08T07:36:33.758Z,35.65
2022-12-08T07:39:00.725Z,135.65
2022-12-08T07:41:27.546Z,110.07
2022-12-08T07:43:55.615Z,84.97
2022-12-08T07:46:24.087Z,84.72
2022-12-08T07:48:52.245Z,98.30
2022-12-08T07:51:19.491Z,62.08
2022-12-08T07:53:53.767Z,52.37
2022-12-08T07:56:22.640Z,44.22
2022-12-08T07:58:49.584Z,37.45
2022-12-08T08:01:25.843Z,28.75
2022-12-08T08:03:53.725Z,30.10
2022-12-08T08:06:20.609Z,26.87
2022-12-08T08:08:47.654Z,27.35
2022-12-08T08:11:20.778Z,27.95
2022-12-08T08:13:48.628Z,27.85
2022-12-08T08:16:15.683Z,28.92
2022-12-08T08:18:42.756Z,28.87
2022-12-08T08:21:43.165Z,27.90
2022-12-08T08:23:56.807Z,28.30
2022-12-08T08:26:23.745Z,29.42
2022-12-08T08:28:50.579Z,29.15
2022-12-08T08:31:17.629Z,29.07
2022-12-08T08:33:44.555Z,28.40
2022-12-08T08:36:11.527Z,29.10
2022-12-08T08:38:38.542Z,29.45
2022-12-08T08:41:09.619Z,29.17
2022-12-08T08:43:38.569Z,26.07
2022-12-08T08:46:07.211Z,28.42
2022-12-08T08:48:34.180Z,27.25
2022-12-08T08:51:08.675Z,26.17
2022-12-08T08:53:36.094Z,26.70
2022-12-08T08:56:03.214Z,26.13
2022-12-08T08:58:30.045Z,27.15
2022-12-08T09:00:56.909Z,28.23
2022-12-08T09:03:23.686Z,28.50
2022-12-08T09:05:50.800Z,28.83
2022-12-08T09:08:17.863Z,28.53
2022-12-08T09:10:44.863Z,28.95
2022-12-08T09:13:11.652Z,29.55
2022-12-08T09:15:38.729Z,30.23
2022-12-08T09:18:05.980Z,29.67
2022-12-08T09:20:34.463Z,31.30
2022-12-08T09:23:01.946Z,30.85
2022-12-08T09:25:29.602Z,30.50
2022-12-08T09:27:56.424Z,28.73
2022-12-08T09:30:23.490Z,29.00
2022-12-08T09:32:50.359Z,28.10
2022-12-08T09:35:17.258Z,27.95
2022-12-08T09:37:44.209Z,27.58
2022-12-08T09:40:17.586Z,28.00
2022-12-08T09:42:52.446Z,28.98
2022-12-08T09:45:20.274Z,27.13
2022-12-08T09:47:59.602Z,25.15
2022-12-08T09:50:35.576Z,24.27
2022-12-08T09:53:11.650Z,22.95
2022-12-08T09:55:59.475Z,20.08
2022-12-08T09:58:38.304Z,16.83
2022-12-08T10:01:05.193Z,18.48
2022-12-08T10:03:32.121Z,18.38
2022-12-08T10:06:19.597Z,19.02
2022-12-08T10:09:11.126Z,20.50
2022-12-08T10:11:49.869Z,21.30
2022-12-08T10:14:38.875Z,27.23
2022-12-08T10:17:36.397Z,29.52
2022-12-08T10:20:11.093Z,23.95
2022-12-08T10:22:44.351Z,23.02
2022-12-08T10:25:14.620Z,25.97
2022-12-08T10:27:41.545Z,21.23
2022-12-08T10:30:17.907Z,16.27
2022-12-08T10:32:48.321Z,17.20
2022-12-08T10:35:17.346Z,18.05
2022-12-08T10:38:00.796Z,15.00
2022-12-08T10:40:36.104Z,15.73
2022-12-08T10:43:06.183Z,15.10
2022-12-08T10:45:38.673Z,14.75
2022-12-08T10:48:30.455Z,15.30
2022-12-08T10:50:59.353Z,15.70
2022-12-08T10:53:28.747Z,14.15
2022-12-08T10:56:04.488Z,14.70
2022-12-08T10:58:37.062Z,12.65
2022-12-08T11:01:11.400Z,13.90
2022-12-08T11:04:02.323Z,14.60
2022-12-08T11:06:29.192Z,14.27
2022-12-08T11:08:58.696Z,12.68
2022-12-08T11:11:47.478Z,12.88
2022-12-08T11:14:46.332Z,14.40
2022-12-08T11:17:21.826Z,14.63
2022-12-08T11:20:04.928Z,12.10
2022-12-08T11:22:37.634Z,11.43
2022-12-08T11:25:21.146Z,11.85
2022-12-08T11:27:50.331Z,11.13
2022-12-08T11:30:20.208Z,12.83
2022-12-08T11:32:50.155Z,11.82
2022-12-08T11:35:38.925Z,9.15
2022-12-08T11:38:30.920Z,11.07
2022-12-08T11:41:21.424Z,9.45
2022-12-08T11:44:12.978Z,9.97
2022-12-08T11:47:14.873Z,9.50
2022-12-08T11:49:43.184Z,9.20
2022-12-08T11:52:32.700Z,9.98
2022-12-08T11:55:21.085Z,10.40
2022-12-08T11:57:49.146Z,9.70
2022-12-08T12:00:17.800Z,11.10
2022-12-08T12:02:53.497Z,11.75
2022-12-08T12:08:54.326Z,11.98
2022-12-08T12:11:32.509Z,14.37
2022-12-08T12:14:38.166Z,15.15
2022-12-08T12:17:08.352Z,11.65
2022-12-08T12:19:39.845Z,12.05
2022-12-08T12:22:17.032Z,13.07
2022-12-08T12:24:48.295Z,12.20
2022-12-08T12:27:15.198Z,11.38
2022-12-08T12:29:56.419Z,10.95
2022-12-08T12:32:24.632Z,11.00
2022-12-08T12:34:55.410Z,10.25
2022-12-08T12:37:36.146Z,10.47
2022-12-08T12:40:06.087Z,10.05
2022-12-08T12:42:46.192Z,10.45
2022-12-08T12:45:16.293Z,10.23
2022-12-08T12:47:58.340Z,9.85
2022-12-08T12:50:34.263Z,9.77
2022-12-08T12:53:03.346Z,9.45
2022-12-08T12:55:57.202Z,8.70
2022-12-08T12:58:30.722Z,9.35
2022-12-08T13:01:12.349Z,11.00
2022-12-08T13:03:44.289Z,9.50
2022-12-08T13:06:14.793Z,10.18
2022-12-08T13:08:51.296Z,9.57
2022-12-08T13:11:18.532Z,10.02
2022-12-08T13:14:04.394Z,9.35
2022-12-08T13:16:38.190Z,10.20
2022-12-08T13:19:14.040Z,8.52
2022-12-08T13:21:41.291Z,9.02
2022-12-08T13:24:10.864Z,8.75
2022-12-08T13:26:48.926Z,9.15
2022-12-08T13:29:26.352Z,8.60
2022-12-08T13:32:00.402Z,10.00
2022-12-08T13:34:36.434Z,12.73
2022-12-08T13:37:12.581Z,10.73
2022-12-08T13:39:39.371Z,9.48
2022-12-08T13:42:12.592Z,8.83
2022-12-08T13:57:08.607Z,7.53
2022-12-08T13:59:44.559Z,8.35
2022-12-08T14:02:45.298Z,8.98
2022-12-08T14:05:18.551Z,8.70
2022-12-08T14:08:02.717Z,8.85
2022-12-08T14:10:31.735Z,8.17
2022-12-08T14:13:03.807Z,9.23
2022-12-08T14:15:37.901Z,8.75
2022-12-08T14:18:06.887Z,8.40
2022-12-08T14:20:57.933Z,7.93
2022-12-08T14:23:22.936Z,8.97
2022-12-08T14:25:49.960Z,9.15
2022-12-08T14:28:16.944Z,8.88
2022-12-08T14:30:44.130Z,9.32
2022-12-08T14:33:16.533Z,8.75
2022-12-08T14:35:49.722Z,8.43
2022-12-08T14:38:19.111Z,9.35
2022-12-08T14:41:02.278Z,9.13
2022-12-08T14:43:30.950Z,9.30
2022-12-08T14:46:01.581Z,9.00
2022-12-08T14:48:31.657Z,10.20
2022-12-08T14:50:58.551Z,10.85
2022-12-08T14:53:26.376Z,10.38
2022-12-08T14:55:53.257Z,11.10
2022-12-08T14:58:29.305Z,11.07
2022-12-08T15:01:00.719Z,10.37
2022-12-08T15:03:31.485Z,9.70
2022-12-08T15:06:03.280Z,10.60
2022-12-08T15:08:31.830Z,10.23
2022-12-08T15:11:30.323Z,10.95
2022-12-08T15:13:57.153Z,9.80
2022-12-08T15:16:43.903Z,11.40
2022-12-08T15:19:18.805Z,11.30
2022-12-08T15:21:46.690Z,10.38
2022-12-08T15:24:15.340Z,11.52
2022-12-08T15:26:46.317Z,11.60
2022-12-08T15:29:26.863Z,12.35
2022-12-08T15:31:57.350Z,12.15
2022-12-08T15:34:24.942Z,11.80
2022-12-08T15:36:53.812Z,11.15
2022-12-08T15:39:37.841Z,11.60
2022-12-08T15:42:10.750Z,11.52
2022-12-08T15:44:37.578Z,11.57
2022-12-08T15:47:04.825Z,11.55
2022-12-08T15:49:31.716Z,10.63
2022-12-08T15:52:10.586Z,10.77
2022-12-08T15:54:38.211Z,10.70
2022-12-08T15:57:22.191Z,10.57
2022-12-08T15:59:53.631Z,10.18
2022-12-08T16:02:22.786Z,10.05
2022-12-08T16:07:37.641Z,9.63
2022-12-08T16:10:07.474Z,9.73
2022-12-08T16:13:19.913Z,10.43
2022-12-08T16:18:26.398Z,9.33
2022-12-08T16:23:43.470Z,7.82
2022-12-08T16:26:49.102Z,6.75
2022-12-08T16:29:10.105Z,4.80
2022-12-08T16:31:37.214Z,5.53
2022-12-08T16:34:04.026Z,6.63
2022-12-08T16:36:31.126Z,6.68
2022-12-08T16:38:58.288Z,5.38
2022-12-08T16:41:25.233Z,4.05
2022-12-08T16:43:52.757Z,3.77
2022-12-08T16:46:21.447Z,3.10
2022-12-08T16:48:48.427Z,4.75
2022-12-08T16:51:22.001Z,5.65
2022-12-08T16:53:52.442Z,5.53
2022-12-08T16:56:20.883Z,5.33
2022-12-08T16:58:48.258Z,9.52
2022-12-08T17:01:17.523Z,11.25
2022-12-08T17:04:01.414Z,10.63
2022-12-08T17:06:33.520Z,9.70
2022-12-08T17:09:00.931Z,9.23
2022-12-08T17:11:27.850Z,7.75
2022-12-08T17:13:54.774Z,8.23
2022-12-08T17:16:22.054Z,6.70
2022-12-08T17:18:49.118Z,6.30
2022-12-08T17:21:17.853Z,6.23
2022-12-08T17:23:45.553Z,5.88
2022-12-08T17:26:14.332Z,6.85
2022-12-08T17:28:59.882Z,6.97
2022-12-08T17:31:30.187Z,6.60
2022-12-08T17:34:02.516Z,7.20
2022-12-08T17:36:29.942Z,6.90
2022-12-08T17:38:58.616Z,6.78
2022-12-08T17:41:25.678Z,8.25
2022-12-08T17:43:52.502Z,11.48
2022-12-08T17:46:20.470Z,10.77
2022-12-08T17:48:47.749Z,11.95
2022-12-08T17:51:15.362Z,9.43
2022-12-08T17:53:42.688Z,10.77
2022-12-08T17:56:21.343Z,11.10
2022-12-08T17:58:54.299Z,11.17
2022-12-08T18:01:23.139Z,10.80
2022-12-08T18:03:50.489Z,12.00
2022-12-08T18:06:17.587Z,15.20
2022-12-08T18:08:45.213Z,15.50
2022-12-08T18:11:19.013Z,11.30
2022-12-08T18:13:48.154Z,14.65
2022-12-08T18:16:17.270Z,12.63
2022-12-08T18:18:44.309Z,11.85
2022-12-08T18:21:12.375Z,12.45
2022-12-08T18:23:41.446Z,11.43
2022-12-08T18:26:10.364Z,10.75
2022-12-08T18:28:37.962Z,12.07
2022-12-08T18:31:17.187Z,10.60
2022-12-08T18:33:45.607Z,13.93
2022-12-08T18:36:24.048Z,13.73
2022-12-08T18:38:52.195Z,11.98
2022-12-08T18:41:23.055Z,10.52
2022-12-08T18:43:50.188Z,10.32
2022-12-08T18:46:17.317Z,10.80
2022-12-08T18:48:47.070Z,12.67
2022-12-08T18:51:16.822Z,10.50
2022-12-08T18:53:44.614Z,10.35
2022-12-08T18:56:41.013Z,11.70
2022-12-08T18:59:11.487Z,12.02
2022-12-08T19:01:39.953Z,12.43
2022-12-08T19:06:57.788Z,12.20
2022-12-08T19:09:25.098Z,12.07
2022-12-08T19:11:55.650Z,12.02
2022-12-08T19:14:28.596Z,12.10
2022-12-08T19:16:56.399Z,13.82
2022-12-08T19:19:24.201Z,13.60
2022-12-08T19:21:51.331Z,14.20
2022-12-08T19:24:18.417Z,13.57
2022-12-08T19:26:45.908Z,15.73
2022-12-08T19:29:13.224Z,14.60
2022-12-08T19:31:40.884Z,14.35
2022-12-08T19:34:08.818Z,15.75
2022-12-08T19:36:38.726Z,15.95
2022-12-08T19:39:05.762Z,12.83
2022-12-08T19:41:33.244Z,10.82
2022-12-08T19:44:00.236Z,12.35
2022-12-08T19:46:27.297Z,12.52
2022-12-08T19:48:54.306Z,12.18
2022-12-08T19:51:21.262Z,12.77
2022-12-08T19:53:48.251Z,12.80
2022-12-08T19:56:15.099Z,16.33
2022-12-08T19:58:42.046Z,15.15
2022-12-08T20:01:09.157Z,12.65
2022-12-08T20:03:36.218Z,13.23
2022-12-08T20:06:04.567Z,12.48
2022-12-08T20:08:31.439Z,14.15
2022-12-08T20:10:58.532Z,15.55
2022-12-08T20:13:25.479Z,16.27
2022-12-08T20:15:53.354Z,15.43
2022-12-08T20:18:21.102Z,15.02
2022-12-08T20:20:48.317Z,15.90
2022-12-08T20:23:16.637Z,14.70
2022-12-08T20:25:45.478Z,19.02
2022-12-08T20:28:12.635Z,19.50
2022-12-08T20:30:41.247Z,19.40
2022-12-08T20:33:08.348Z,20.10
2022-12-08T20:35:35.211Z,19.08
2022-12-08T20:38:02.239Z,14.90
2022-12-08T20:40:29.259Z,15.03
2022-12-08T20:42:56.454Z,14.27
2022-12-08T20:45:23.338Z,16.15
2022-12-08T20:47:50.409Z,14.68
2022-12-08T20:50:17.485Z,14.25
2022-12-08T20:52:44.543Z,13.93
2022-12-08T20:55:11.474Z,14.25
2022-12-08T20:57:38.685Z,13.18
2022-12-08T21:00:07.506Z,14.65
2022-12-08T21:02:34.941Z,12.60
2022-12-08T21:05:02.082Z,13.07
2022-12-08T21:07:29.550Z,16.02
2022-12-08T21:09:56.605Z,12.77
2022-12-08T21:12:23.675Z,14.48
2022-12-08T21:14:51.145Z,14.15
2022-12-08T21:17:18.318Z,12.97
2022-12-08T21:19:45.630Z,13.13
2022-12-08T21:22:12.532Z,12.52
2022-12-08T21:24:39.500Z,12.40
2022-12-08T21:27:06.440Z,13.35
2022-12-08T21:29:33.361Z,13.57
2022-12-08T21:32:00.328Z,14.68
2022-12-08T21:34:28.161Z,15.70
2022-12-08T21:36:55.025Z,11.80
2022-12-08T21:39:22.252Z,15.85
2022-12-08T21:41:49.331Z,17.20
2022-12-08T21:44:17.452Z,16.13
2022-12-08T21:46:44.634Z,15.23
2022-12-08T21:49:11.697Z,12.75
2022-12-08T21:51:38.604Z,14.27
2022-12-08T21:54:05.584Z,13.43
2022-12-08T21:56:32.969Z,13.07
2022-12-08T21:58:59.952Z,11.57
2022-12-08T22:01:27.175Z,12.52
2022-12-08T22:03:54.407Z,14.70
2022-12-08T22:06:21.718Z,13.23
2022-12-08T22:08:48.786Z,13.45
2022-12-08T22:11:15.855Z,13.25
2022-12-08T22:13:42.869Z,12.70
2022-12-08T22:16:12.837Z,11.32
2022-12-08T22:18:40.100Z,12.40
2022-12-08T22:21:14.959Z,15.40
2022-12-08T22:23:42.913Z,16.25
2022-12-08T22:26:11.108Z,17.20
2022-12-08T22:28:41.568Z,15.15
2022-12-08T22:31:17.413Z,14.00
2022-12-08T22:33:44.782Z,13.55
2022-12-08T22:36:16.045Z,12.65
2022-12-08T22:38:43.250Z,12.82
2022-12-08T22:41:10.154Z,10.77
2022-12-08T22:43:37.922Z,11.77
2022-12-08T22:46:15.539Z,16.83
2022-12-08T22:48:42.776Z,14.00
2022-12-08T22:51:10.401Z,15.25
2022-12-08T22:53:37.734Z,13.35
2022-12-08T22:56:05.902Z,14.60
2022-12-08T22:58:32.906Z,14.70
2022-12-08T23:00:59.884Z,16.67
2022-12-08T23:03:27.272Z,20.17
2022-12-08T23:05:54.719Z,20.75
2022-12-08T23:08:21.792Z,18.67
2022-12-08T23:10:51.120Z,19.13
2022-12-08T23:13:18.614Z,19.20
2022-12-08T23:15:45.981Z,14.50
2022-12-08T23:18:18.074Z,14.73
2022-12-08T23:20:45.944Z,16.87
2022-12-08T23:23:13.713Z,21.23
2022-12-08T23:25:43.927Z,21.50
2022-12-08T23:28:12.911Z,20.17
2022-12-08T23:30:40.783Z,16.63
2022-12-08T23:33:07.909Z,16.10
2022-12-08T23:35:35.349Z,17.10
2022-12-08T23:38:02.504Z,15.82
2022-12-08T23:40:29.567Z,13.82
2022-12-08T23:42:56.581Z,13.25
2022-12-08T23:45:23.706Z,12.10
2022-12-08T23:47:50.747Z,11.57
2022-12-08T23:50:17.830Z,15.60
2022-12-08T23:52:45.566Z,17.52
2022-12-08T23:55:12.635Z,16.95
2022-12-08T23:57:39.644Z,16.40
